sensor_id;sensor_type;location;lat;lon;timestamp;temperature;humidity
6355;DHT22;3210;48.708;9.030;2022-09-13T00:01:45;12.30;99.90
6355;DHT22;3210;48.708;9.030;2022-09-13T00:04:12;12.40;99.90
6355;DHT22;3210;48.708;9.030;2022-09-13T00:06:38;12.40;99.90
6355;DHT22;3210;48.708;9.030;2022-09-13T00:09:05;12.40;99.90
6355;DHT22;3210;48.708;9.030;2022-09-13T00:11:32;12.50;99.90
6355;DHT22;3210;48.708;9.030;2022-09-13T00:14:01;12.40;99.90
6355;DHT22;3210;48.708;9.030;2022-09-13T00:16:29;12.50;99.90
6355;DHT22;3210;48.708;9.030;2022-09-13T00:18:56;12.50;99.90
6355;DHT22;3210;48.708;9.030;2022-09-13T00:21:23;12.40;99.90
6355;DHT22;3210;48.708;9.030;2022-09-13T00:23:51;12.50;99.90
6355;DHT22;3210;48.708;9.030;2022-09-13T00:26:20;12.50;99.90
6355;DHT22;3210;48.708;9.030;2022-09-13T00:28:48;12.50;99.90
6355;DHT22;3210;48.708;9.030;2022-09-13T00:31:22;12.50;99.90
6355;DHT22;3210;48.708;9.030;2022-09-13T00:33:49;12.40;99.90
6355;DHT22;3210;48.708;9.030;2022-09-13T00:36:16;12.30;99.90
6355;DHT22;3210;48.708;9.030;2022-09-13T00:38:43;12.30;99.90
6355;DHT22;3210;48.708;9.030;2022-09-13T00:41:12;12.30;99.90
6355;DHT22;3210;48.708;9.030;2022-09-13T00:43:43;12.30;99.90
6355;DHT22;3210;48.708;9.030;2022-09-13T00:46:12;12.30;99.90
6355;DHT22;3210;48.708;9.030;2022-09-13T00:48:44;12.30;99.90
6355;DHT22;3210;48.708;9.030;2022-09-13T00:51:12;12.30;99.90
6355;DHT22;3210;48.708;9.030;2022-09-13T00:53:42;12.30;99.90
6355;DHT22;3210;48.708;9.030;2022-09-13T00:56:13;12.20;99.90
6355;DHT22;3210;48.708;9.030;2022-09-13T00:58:46;12.20;99.90
6355;DHT22;3210;48.708;9.030;2022-09-13T01:01:16;12.20;99.90
6355;DHT22;3210;48.708;9.030;2022-09-13T01:03:46;12.20;99.90
6355;DHT22;3210;48.708;9.030;2022-09-13T01:06:17;12.10;99.90
6355;DHT22;3210;48.708;9.030;2022-09-13T01:08:49;12.10;99.90
6355;DHT22;3210;48.708;9.030;2022-09-13T01:11:19;12.10;99.90
6355;DHT22;3210;48.708;9.030;2022-09-13T01:13:50;12.10;99.90
6355;DHT22;3210;48.708;9.030;2022-09-13T01:16:17;12.00;99.90
6355;DHT22;3210;48.708;9.030;2022-09-13T01:18:45;12.00;99.90
6355;DHT22;3210;48.708;9.030;2022-09-13T01:25:09;12.00;99.90
6355;DHT22;3210;48.708;9.030;2022-09-13T01:27:53;12.00;99.90
6355;DHT22;3210;48.708;9.030;2022-09-13T01:30:27;12.00;99.90
6355;DHT22;3210;48.708;9.030;2022-09-13T01:33:22;12.00;99.90
6355;DHT22;3210;48.708;9.030;2022-09-13T01:36:12;12.00;99.90
6355;DHT22;3210;48.708;9.030;2022-09-13T01:38:52;12.10;99.90
6355;DHT22;3210;48.708;9.030;2022-09-13T01:41:42;12.00;99.90
6355;DHT22;3210;48.708;9.030;2022-09-13T01:44:19;12.00;99.90
6355;DHT22;3210;48.708;9.030;2022-09-13T01:46:59;11.90;99.90
6355;DHT22;3210;48.708;9.030;2022-09-13T01:49:31;11.90;99.90
6355;DHT22;3210;48.708;9.030;2022-09-13T01:52:01;11.90;99.90
6355;DHT22;3210;48.708;9.030;2022-09-13T01:54:37;11.90;99.90
6355;DHT22;3210;48.708;9.030;2022-09-13T01:57:10;11.80;99.90
6355;DHT22;3210;48.708;9.030;2022-09-13T01:59:47;11.90;99.90
6355;DHT22;3210;48.708;9.030;2022-09-13T02:02:18;11.90;99.90
6355;DHT22;3210;48.708;9.030;2022-09-13T02:04:50;11.90;99.90
6355;DHT22;3210;48.708;9.030;2022-09-13T02:07:21;11.80;99.90
6355;DHT22;3210;48.708;9.030;2022-09-13T02:09:54;11.80;99.90
6355;DHT22;3210;48.708;9.030;2022-09-13T02:12:24;11.80;99.90
6355;DHT22;3210;48.708;9.030;2022-09-13T02:14:55;11.80;99.90
6355;DHT22;3210;48.708;9.030;2022-09-13T02:17:27;11.80;99.90
6355;DHT22;3210;48.708;9.030;2022-09-13T02:19:57;11.90;99.90
6355;DHT22;3210;48.708;9.030;2022-09-13T02:22:27;11.80;99.90
6355;DHT22;3210;48.708;9.030;2022-09-13T02:24:59;11.90;99.90
6355;DHT22;3210;48.708;9.030;2022-09-13T02:27:32;11.80;99.90
6355;DHT22;3210;48.708;9.030;2022-09-13T02:30:02;11.90;99.90
6355;DHT22;3210;48.708;9.030;2022-09-13T02:32:33;11.80;99.90
6355;DHT22;3210;48.708;9.030;2022-09-13T02:35:04;11.80;99.90
6355;DHT22;3210;48.708;9.030;2022-09-13T02:37:34;11.80;99.90
6355;DHT22;3210;48.708;9.030;2022-09-13T02:40:05;11.80;99.90
6355;DHT22;3210;48.708;9.030;2022-09-13T02:42:36;11.80;99.90
6355;DHT22;3210;48.708;9.030;2022-09-13T02:45:07;11.80;99.90
6355;DHT22;3210;48.708;9.030;2022-09-13T02:47:42;11.90;99.90
6355;DHT22;3210;48.708;9.030;2022-09-13T02:50:21;11.80;99.90
6355;DHT22;3210;48.708;9.030;2022-09-13T02:53:00;11.80;99.90
6355;DHT22;3210;48.708;9.030;2022-09-13T02:55:31;11.80;99.90
6355;DHT22;3210;48.708;9.030;2022-09-13T02:58:07;11.80;99.90
6355;DHT22;3210;48.708;9.030;2022-09-13T03:00:36;11.80;99.90
6355;DHT22;3210;48.708;9.030;2022-09-13T03:03:07;11.70;99.90
6355;DHT22;3210;48.708;9.030;2022-09-13T03:05:35;11.70;99.90
6355;DHT22;3210;48.708;9.030;2022-09-13T03:08:02;11.70;99.90
6355;DHT22;3210;48.708;9.030;2022-09-13T03:10:34;11.70;99.90
6355;DHT22;3210;48.708;9.030;2022-09-13T03:13:25;11.60;99.90
6355;DHT22;3210;48.708;9.030;2022-09-13T03:16:05;11.60;99.90
6355;DHT22;3210;48.708;9.030;2022-09-13T03:18:48;11.50;99.90
6355;DHT22;3210;48.708;9.030;2022-09-13T03:21:38;11.40;99.90
6355;DHT22;3210;48.708;9.030;2022-09-13T03:24:17;11.40;99.90
6355;DHT22;3210;48.708;9.030;2022-09-13T03:27:02;11.50;99.90
6355;DHT22;3210;48.708;9.030;2022-09-13T03:29:37;11.50;99.90
6355;DHT22;3210;48.708;9.030;2022-09-13T03:32:15;11.50;99.90
6355;DHT22;3210;48.708;9.030;2022-09-13T03:34:50;11.50;99.90
6355;DHT22;3210;48.708;9.030;2022-09-13T03:37:24;11.40;99.90
6355;DHT22;3210;48.708;9.030;2022-09-13T03:39:56;11.40;99.90
6355;DHT22;3210;48.708;9.030;2022-09-13T03:42:31;11.40;99.90
6355;DHT22;3210;48.708;9.030;2022-09-13T03:45:02;11.40;99.90
6355;DHT22;3210;48.708;9.030;2022-09-13T03:47:32;11.30;99.90
6355;DHT22;3210;48.708;9.030;2022-09-13T03:50:03;11.30;99.90
6355;DHT22;3210;48.708;9.030;2022-09-13T03:52:31;11.30;99.90
6355;DHT22;3210;48.708;9.030;2022-09-13T03:54:58;11.40;99.90
6355;DHT22;3210;48.708;9.030;2022-09-13T03:57:25;11.40;99.90
6355;DHT22;3210;48.708;9.030;2022-09-13T03:59:53;11.40;99.90
6355;DHT22;3210;48.708;9.030;2022-09-13T04:02:22;11.40;99.90
6355;DHT22;3210;48.708;9.030;2022-09-13T04:04:49;11.40;99.90
6355;DHT22;3210;48.708;9.030;2022-09-13T04:07:19;11.40;99.90
6355;DHT22;3210;48.708;9.030;2022-09-13T04:09:46;11.40;99.90
6355;DHT22;3210;48.708;9.030;2022-09-13T04:12:14;11.40;99.90
6355;DHT22;3210;48.708;9.030;2022-09-13T04:14:41;11.40;99.90
6355;DHT22;3210;48.708;9.030;2022-09-13T04:17:09;11.40;99.90
6355;DHT22;3210;48.708;9.030;2022-09-13T04:19:36;11.50;99.90
6355;DHT22;3210;48.708;9.030;2022-09-13T04:22:03;11.40;99.90
6355;DHT22;3210;48.708;9.030;2022-09-13T04:24:31;11.30;99.90
6355;DHT22;3210;48.708;9.030;2022-09-13T04:26:58;11.40;99.90
6355;DHT22;3210;48.708;9.030;2022-09-13T04:29:26;11.40;99.90
6355;DHT22;3210;48.708;9.030;2022-09-13T04:31:54;11.60;99.90
6355;DHT22;3210;48.708;9.030;2022-09-13T04:34:21;11.70;99.90
6355;DHT22;3210;48.708;9.030;2022-09-13T04:36:49;11.70;99.90
6355;DHT22;3210;48.708;9.030;2022-09-13T04:39:16;11.80;99.90
6355;DHT22;3210;48.708;9.030;2022-09-13T04:41:45;11.70;99.90
6355;DHT22;3210;48.708;9.030;2022-09-13T04:44:13;11.70;99.90
6355;DHT22;3210;48.708;9.030;2022-09-13T04:46:40;11.60;99.90
6355;DHT22;3210;48.708;9.030;2022-09-13T04:49:09;11.60;99.90
6355;DHT22;3210;48.708;9.030;2022-09-13T04:51:36;11.70;99.90
6355;DHT22;3210;48.708;9.030;2022-09-13T04:54:03;11.70;99.90
6355;DHT22;3210;48.708;9.030;2022-09-13T04:56:29;11.70;99.90
6355;DHT22;3210;48.708;9.030;2022-09-13T04:58:58;11.70;99.90
6355;DHT22;3210;48.708;9.030;2022-09-13T05:01:24;11.80;99.90
6355;DHT22;3210;48.708;9.030;2022-09-13T05:03:51;11.90;99.90
6355;DHT22;3210;48.708;9.030;2022-09-13T05:06:18;11.90;99.90
6355;DHT22;3210;48.708;9.030;2022-09-13T05:08:49;11.90;99.90
6355;DHT22;3210;48.708;9.030;2022-09-13T05:11:16;11.90;99.90
6355;DHT22;3210;48.708;9.030;2022-09-13T05:13:47;11.90;99.90
6355;DHT22;3210;48.708;9.030;2022-09-13T05:16:18;11.90;99.90
6355;DHT22;3210;48.708;9.030;2022-09-13T05:18:45;11.90;99.90
6355;DHT22;3210;48.708;9.030;2022-09-13T05:21:12;11.90;99.90
6355;DHT22;3210;48.708;9.030;2022-09-13T05:23:39;11.90;99.90
6355;DHT22;3210;48.708;9.030;2022-09-13T05:26:06;12.00;99.90
6355;DHT22;3210;48.708;9.030;2022-09-13T05:28:34;12.00;99.90
6355;DHT22;3210;48.708;9.030;2022-09-13T05:31:03;12.00;99.90
6355;DHT22;3210;48.708;9.030;2022-09-13T05:33:33;12.10;99.90
6355;DHT22;3210;48.708;9.030;2022-09-13T05:36:01;12.10;99.90
6355;DHT22;3210;48.708;9.030;2022-09-13T05:38:28;12.10;99.90
6355;DHT22;3210;48.708;9.030;2022-09-13T05:40:56;12.10;99.90
6355;DHT22;3210;48.708;9.030;2022-09-13T05:43:24;12.10;99.90
6355;DHT22;3210;48.708;9.030;2022-09-13T05:45:51;12.10;99.90
6355;DHT22;3210;48.708;9.030;2022-09-13T05:48:25;12.20;99.90
6355;DHT22;3210;48.708;9.030;2022-09-13T05:50:53;12.20;99.90
6355;DHT22;3210;48.708;9.030;2022-09-13T05:53:20;12.20;99.90
6355;DHT22;3210;48.708;9.030;2022-09-13T05:55:46;12.20;99.90
6355;DHT22;3210;48.708;9.030;2022-09-13T05:58:13;12.30;99.90
6355;DHT22;3210;48.708;9.030;2022-09-13T06:00:40;12.30;99.90
6355;DHT22;3210;48.708;9.030;2022-09-13T06:03:07;12.40;99.90
6355;DHT22;3210;48.708;9.030;2022-09-13T06:05:33;12.50;99.90
6355;DHT22;3210;48.708;9.030;2022-09-13T06:08:02;12.60;99.90
6355;DHT22;3210;48.708;9.030;2022-09-13T06:10:29;12.80;99.90
6355;DHT22;3210;48.708;9.030;2022-09-13T06:12:55;12.80;99.90
6355;DHT22;3210;48.708;9.030;2022-09-13T06:15:22;12.80;99.90
6355;DHT22;3210;48.708;9.030;2022-09-13T06:17:49;12.90;99.90
6355;DHT22;3210;48.708;9.030;2022-09-13T06:20:16;13.00;99.90
6355;DHT22;3210;48.708;9.030;2022-09-13T06:22:43;13.10;99.90
6355;DHT22;3210;48.708;9.030;2022-09-13T06:25:11;13.10;99.90
6355;DHT22;3210;48.708;9.030;2022-09-13T06:27:38;13.10;99.90
6355;DHT22;3210;48.708;9.030;2022-09-13T06:30:06;13.10;99.90
6355;DHT22;3210;48.708;9.030;2022-09-13T06:32:33;13.10;99.90
6355;DHT22;3210;48.708;9.030;2022-09-13T06:35:00;13.10;99.90
6355;DHT22;3210;48.708;9.030;2022-09-13T06:37:27;13.10;99.90
6355;DHT22;3210;48.708;9.030;2022-09-13T06:39:54;13.20;99.90
6355;DHT22;3210;48.708;9.030;2022-09-13T06:42:22;13.20;99.90
6355;DHT22;3210;48.708;9.030;2022-09-13T06:44:49;13.30;99.90
6355;DHT22;3210;48.708;9.030;2022-09-13T06:47:15;13.50;99.90
6355;DHT22;3210;48.708;9.030;2022-09-13T06:49:42;13.40;99.90
6355;DHT22;3210;48.708;9.030;2022-09-13T06:52:09;13.60;99.90
6355;DHT22;3210;48.708;9.030;2022-09-13T06:54:35;13.70;99.90
6355;DHT22;3210;48.708;9.030;2022-09-13T06:57:02;13.80;99.90
6355;DHT22;3210;48.708;9.030;2022-09-13T06:59:31;14.00;99.90
6355;DHT22;3210;48.708;9.030;2022-09-13T07:01:59;14.10;99.90
6355;DHT22;3210;48.708;9.030;2022-09-13T07:04:26;14.30;99.90
6355;DHT22;3210;48.708;9.030;2022-09-13T07:06:56;14.40;99.90
6355;DHT22;3210;48.708;9.030;2022-09-13T07:09:23;14.60;99.90
6355;DHT22;3210;48.708;9.030;2022-09-13T07:11:53;14.80;99.90
6355;DHT22;3210;48.708;9.030;2022-09-13T07:14:22;15.00;99.90
6355;DHT22;3210;48.708;9.030;2022-09-13T07:16:51;15.20;99.90
6355;DHT22;3210;48.708;9.030;2022-09-13T07:19:20;15.30;99.90
6355;DHT22;3210;48.708;9.030;2022-09-13T07:21:48;15.40;99.90
6355;DHT22;3210;48.708;9.030;2022-09-13T07:24:16;15.50;99.90
6355;DHT22;3210;48.708;9.030;2022-09-13T07:26:43;15.80;99.90
6355;DHT22;3210;48.708;9.030;2022-09-13T07:29:12;16.00;99.90
6355;DHT22;3210;48.708;9.030;2022-09-13T07:31:43;16.30;99.90
6355;DHT22;3210;48.708;9.030;2022-09-13T07:34:13;16.30;99.90
6355;DHT22;3210;48.708;9.030;2022-09-13T07:36:40;16.50;99.90
6355;DHT22;3210;48.708;9.030;2022-09-13T07:39:07;16.70;99.90
6355;DHT22;3210;48.708;9.030;2022-09-13T07:41:34;16.80;1.00
6355;DHT22;3210;48.708;9.030;2022-09-13T07:44:01;16.90;1.00
6355;DHT22;3210;48.708;9.030;2022-09-13T07:46:30;17.20;1.00
6355;DHT22;3210;48.708;9.030;2022-09-13T07:48:57;17.50;99.90
6355;DHT22;3210;48.708;9.030;2022-09-13T07:51:27;17.50;99.90
6355;DHT22;3210;48.708;9.030;2022-09-13T07:53:56;17.70;99.90
6355;DHT22;3210;48.708;9.030;2022-09-13T07:56:24;17.90;1.00
6355;DHT22;3210;48.708;9.030;2022-09-13T07:58:52;18.10;99.90
6355;DHT22;3210;48.708;9.030;2022-09-13T08:01:21;18.40;1.00
6355;DHT22;3210;48.708;9.030;2022-09-13T08:03:52;18.70;1.00
6355;DHT22;3210;48.708;9.030;2022-09-13T08:06:20;18.90;99.90
6355;DHT22;3210;48.708;9.030;2022-09-13T08:08:48;19.20;1.00
6355;DHT22;3210;48.708;9.030;2022-09-13T08:11:17;19.60;1.00
6355;DHT22;3210;48.708;9.030;2022-09-13T08:13:44;19.80;99.90
6355;DHT22;3210;48.708;9.030;2022-09-13T08:16:12;20.00;99.90
6355;DHT22;3210;48.708;9.030;2022-09-13T08:18:42;20.10;99.90
6355;DHT22;3210;48.708;9.030;2022-09-13T08:21:09;20.10;99.90
6355;DHT22;3210;48.708;9.030;2022-09-13T08:23:36;20.20;99.90
6355;DHT22;3210;48.708;9.030;2022-09-13T08:26:05;20.30;99.90
6355;DHT22;3210;48.708;9.030;2022-09-13T08:28:33;20.30;1.00
6355;DHT22;3210;48.708;9.030;2022-09-13T08:31:04;20.40;1.00
6355;DHT22;3210;48.708;9.030;2022-09-13T08:33:31;20.60;1.00
6355;DHT22;3210;48.708;9.030;2022-09-13T08:35:59;20.80;1.00
6355;DHT22;3210;48.708;9.030;2022-09-13T08:38:25;21.00;99.90
6355;DHT22;3210;48.708;9.030;2022-09-13T08:40:54;21.00;99.90
6355;DHT22;3210;48.708;9.030;2022-09-13T08:43:31;21.30;99.90
6355;DHT22;3210;48.708;9.030;2022-09-13T08:46:08;21.50;99.90
6355;DHT22;3210;48.708;9.030;2022-09-13T08:48:40;21.60;1.00
6355;DHT22;3210;48.708;9.030;2022-09-13T08:51:25;21.70;1.00
6355;DHT22;3210;48.708;9.030;2022-09-13T08:53:54;21.80;1.00
6355;DHT22;3210;48.708;9.030;2022-09-13T08:56:23;21.90;1.00
6355;DHT22;3210;48.708;9.030;2022-09-13T08:59:15;22.10;1.00
6355;DHT22;3210;48.708;9.030;2022-09-13T09:01:55;22.10;1.00
6355;DHT22;3210;48.708;9.030;2022-09-13T09:04:33;22.20;1.00
6355;DHT22;3210;48.708;9.030;2022-09-13T09:07:08;22.30;99.90
6355;DHT22;3210;48.708;9.030;2022-09-13T09:09:40;22.50;99.90
6355;DHT22;3210;48.708;9.030;2022-09-13T09:12:15;22.80;99.90
6355;DHT22;3210;48.708;9.030;2022-09-13T09:14:47;23.00;99.90
6355;DHT22;3210;48.708;9.030;2022-09-13T09:17:21;23.00;99.90
6355;DHT22;3210;48.708;9.030;2022-09-13T09:19:54;22.90;99.90
6355;DHT22;3210;48.708;9.030;2022-09-13T09:22:31;22.80;99.90
6355;DHT22;3210;48.708;9.030;2022-09-13T09:24:59;22.80;99.90
6355;DHT22;3210;48.708;9.030;2022-09-13T09:27:28;23.00;99.90
6355;DHT22;3210;48.708;9.030;2022-09-13T09:30:00;23.10;99.90
6355;DHT22;3210;48.708;9.030;2022-09-13T09:32:50;23.40;99.90
6355;DHT22;3210;48.708;9.030;2022-09-13T09:35:28;23.80;99.90
6355;DHT22;3210;48.708;9.030;2022-09-13T09:38:27;23.70;99.90
6355;DHT22;3210;48.708;9.030;2022-09-13T09:40:59;23.60;99.90
6355;DHT22;3210;48.708;9.030;2022-09-13T09:43:31;23.60;99.90
6355;DHT22;3210;48.708;9.030;2022-09-13T09:46:02;23.70;99.90
6355;DHT22;3210;48.708;9.030;2022-09-13T09:48:37;23.70;99.90
6355;DHT22;3210;48.708;9.030;2022-09-13T09:51:07;23.60;99.90
6355;DHT22;3210;48.708;9.030;2022-09-13T09:53:40;23.60;99.90
6355;DHT22;3210;48.708;9.030;2022-09-13T09:56:18;23.70;99.90
6355;DHT22;3210;48.708;9.030;2022-09-13T09:58:46;23.90;99.90
6355;DHT22;3210;48.708;9.030;2022-09-13T10:01:21;24.10;99.90
6355;DHT22;3210;48.708;9.030;2022-09-13T10:03:51;24.20;27.00
6355;DHT22;3210;48.708;9.030;2022-09-13T10:06:21;24.40;1.00
6355;DHT22;3210;48.708;9.030;2022-09-13T10:08:54;24.60;41.50
6355;DHT22;3210;48.708;9.030;2022-09-13T10:11:23;24.70;1.00
6355;DHT22;3210;48.708;9.030;2022-09-13T10:14:00;24.80;5.40
6355;DHT22;3210;48.708;9.030;2022-09-13T10:16:30;24.90;1.00
6355;DHT22;3210;48.708;9.030;2022-09-13T10:19:19;24.80;1.00
6355;DHT22;3210;48.708;9.030;2022-09-13T10:21:59;24.60;1.00
6355;DHT22;3210;48.708;9.030;2022-09-13T10:24:26;24.60;1.00
6355;DHT22;3210;48.708;9.030;2022-09-13T10:26:54;24.60;1.00
6355;DHT22;3210;48.708;9.030;2022-09-13T10:29:21;24.60;1.00
6355;DHT22;3210;48.708;9.030;2022-09-13T10:31:51;24.70;1.00
6355;DHT22;3210;48.708;9.030;2022-09-13T10:34:22;24.70;1.00
6355;DHT22;3210;48.708;9.030;2022-09-13T10:36:54;24.70;1.00
6355;DHT22;3210;48.708;9.030;2022-09-13T10:39:23;25.00;1.00
6355;DHT22;3210;48.708;9.030;2022-09-13T10:41:52;24.90;1.00
6355;DHT22;3210;48.708;9.030;2022-09-13T10:44:27;24.90;1.00
6355;DHT22;3210;48.708;9.030;2022-09-13T10:46:59;24.90;1.00
6355;DHT22;3210;48.708;9.030;2022-09-13T10:49:40;24.60;1.00
6355;DHT22;3210;48.708;9.030;2022-09-13T10:52:25;24.80;1.00
6355;DHT22;3210;48.708;9.030;2022-09-13T10:54:52;25.10;1.00
6355;DHT22;3210;48.708;9.030;2022-09-13T10:57:32;25.40;1.00
6355;DHT22;3210;48.708;9.030;2022-09-13T10:59:59;25.70;1.00
6355;DHT22;3210;48.708;9.030;2022-09-13T11:05:26;25.90;1.00
6355;DHT22;3210;48.708;9.030;2022-09-13T11:08:07;26.10;1.00
6355;DHT22;3210;48.708;9.030;2022-09-13T11:10:45;26.50;1.00
6355;DHT22;3210;48.708;9.030;2022-09-13T11:13:23;26.60;1.00
6355;DHT22;3210;48.708;9.030;2022-09-13T11:15:59;26.70;1.00
6355;DHT22;3210;48.708;9.030;2022-09-13T11:21:39;26.60;1.00
6355;DHT22;3210;48.708;9.030;2022-09-13T11:24:28;26.50;1.00
6355;DHT22;3210;48.708;9.030;2022-09-13T11:27:03;26.30;1.00
6355;DHT22;3210;48.708;9.030;2022-09-13T11:29:52;26.30;1.00
6355;DHT22;3210;48.708;9.030;2022-09-13T11:32:30;26.30;1.00
6355;DHT22;3210;48.708;9.030;2022-09-13T11:35:15;26.50;1.00
6355;DHT22;3210;48.708;9.030;2022-09-13T11:37:48;26.50;1.00
6355;DHT22;3210;48.708;9.030;2022-09-13T11:40:27;26.50;1.00
6355;DHT22;3210;48.708;9.030;2022-09-13T11:43:07;26.50;1.00
6355;DHT22;3210;48.708;9.030;2022-09-13T11:45:44;26.50;1.00
6355;DHT22;3210;48.708;9.030;2022-09-13T11:48:38;26.60;1.00
6355;DHT22;3210;48.708;9.030;2022-09-13T11:51:12;26.60;1.00
6355;DHT22;3210;48.708;9.030;2022-09-13T11:53:55;26.60;1.00
6355;DHT22;3210;48.708;9.030;2022-09-13T11:56:28;26.60;1.00
6355;DHT22;3210;48.708;9.030;2022-09-13T11:59:06;26.50;1.00
6355;DHT22;3210;48.708;9.030;2022-09-13T12:01:36;26.40;1.00
6355;DHT22;3210;48.708;9.030;2022-09-13T12:04:09;26.20;1.00
6355;DHT22;3210;48.708;9.030;2022-09-13T12:06:41;26.20;1.00
6355;DHT22;3210;48.708;9.030;2022-09-13T12:09:14;26.20;1.00
6355;DHT22;3210;48.708;9.030;2022-09-13T12:11:46;26.00;1.00
6355;DHT22;3210;48.708;9.030;2022-09-13T12:14:16;25.90;1.00
6355;DHT22;3210;48.708;9.030;2022-09-13T12:16:47;25.70;1.00
6355;DHT22;3210;48.708;9.030;2022-09-13T12:19:17;25.80;1.00
6355;DHT22;3210;48.708;9.030;2022-09-13T12:21:48;25.90;1.00
6355;DHT22;3210;48.708;9.030;2022-09-13T12:24:19;26.10;1.00
6355;DHT22;3210;48.708;9.030;2022-09-13T12:26:50;26.30;1.00
6355;DHT22;3210;48.708;9.030;2022-09-13T12:29:24;26.30;1.00
6355;DHT22;3210;48.708;9.030;2022-09-13T12:31:57;26.20;1.00
6355;DHT22;3210;48.708;9.030;2022-09-13T12:34:27;26.40;1.00
6355;DHT22;3210;48.708;9.030;2022-09-13T12:37:08;26.60;1.00
6355;DHT22;3210;48.708;9.030;2022-09-13T12:40:13;26.60;1.00
6355;DHT22;3210;48.708;9.030;2022-09-13T12:43:08;26.50;1.00
6355;DHT22;3210;48.708;9.030;2022-09-13T12:45:51;26.40;3.70
6355;DHT22;3210;48.708;9.030;2022-09-13T12:48:53;26.30;1.00
6355;DHT22;3210;48.708;9.030;2022-09-13T12:51:35;26.20;9.20
6355;DHT22;3210;48.708;9.030;2022-09-13T12:54:31;26.40;1.00
6355;DHT22;3210;48.708;9.030;2022-09-13T12:57:20;26.30;15.80
6355;DHT22;3210;48.708;9.030;2022-09-13T13:00:11;26.20;1.00
6355;DHT22;3210;48.708;9.030;2022-09-13T13:02:41;26.20;1.00
6355;DHT22;3210;48.708;9.030;2022-09-13T13:05:24;26.20;1.00
6355;DHT22;3210;48.708;9.030;2022-09-13T13:07:54;26.20;1.00
6355;DHT22;3210;48.708;9.030;2022-09-13T13:10:29;26.40;1.00
6355;DHT22;3210;48.708;9.030;2022-09-13T13:13:09;26.60;1.00
6355;DHT22;3210;48.708;9.030;2022-09-13T13:15:58;26.60;1.00
6355;DHT22;3210;48.708;9.030;2022-09-13T13:18:28;26.50;1.00
6355;DHT22;3210;48.708;9.030;2022-09-13T13:21:24;26.70;1.00
6355;DHT22;3210;48.708;9.030;2022-09-13T13:26:57;26.50;1.00
6355;DHT22;3210;48.708;9.030;2022-09-13T13:29:27;26.50;1.00
6355;DHT22;3210;48.708;9.030;2022-09-13T13:32:10;26.40;1.00
6355;DHT22;3210;48.708;9.030;2022-09-13T13:34:47;26.30;1.00
6355;DHT22;3210;48.708;9.030;2022-09-13T13:37:27;26.10;1.00
6355;DHT22;3210;48.708;9.030;2022-09-13T13:40:20;26.10;1.00
6355;DHT22;3210;48.708;9.030;2022-09-13T13:42:49;25.90;1.00
6355;DHT22;3210;48.708;9.030;2022-09-13T13:45:23;25.80;1.00
6355;DHT22;3210;48.708;9.030;2022-09-13T13:51:13;25.90;1.00
6355;DHT22;3210;48.708;9.030;2022-09-13T13:53:42;25.90;1.00
6355;DHT22;3210;48.708;9.030;2022-09-13T13:56:19;26.00;1.00
6355;DHT22;3210;48.708;9.030;2022-09-13T13:58:56;26.10;1.00
6355;DHT22;3210;48.708;9.030;2022-09-13T14:01:27;26.30;1.00
6355;DHT22;3210;48.708;9.030;2022-09-13T14:07:11;26.80;1.00
6355;DHT22;3210;48.708;9.030;2022-09-13T14:09:45;27.10;1.00
6355;DHT22;3210;48.708;9.030;2022-09-13T14:12:30;27.20;1.00
6355;DHT22;3210;48.708;9.030;2022-09-13T14:15:29;27.10;1.00
6355;DHT22;3210;48.708;9.030;2022-09-13T14:18:20;27.10;1.00
6355;DHT22;3210;48.708;9.030;2022-09-13T14:20:58;27.20;1.00
6355;DHT22;3210;48.708;9.030;2022-09-13T14:23:24;27.40;1.00
6355;DHT22;3210;48.708;9.030;2022-09-13T14:25:54;27.50;1.00
6355;DHT22;3210;48.708;9.030;2022-09-13T14:28:22;27.50;1.00
6355;DHT22;3210;48.708;9.030;2022-09-13T14:30:54;27.40;1.00
6355;DHT22;3210;48.708;9.030;2022-09-13T14:33:24;27.40;1.00
6355;DHT22;3210;48.708;9.030;2022-09-13T14:36:03;27.40;1.00
6355;DHT22;3210;48.708;9.030;2022-09-13T14:38:35;27.40;1.00
6355;DHT22;3210;48.708;9.030;2022-09-13T14:41:12;27.30;1.00
6355;DHT22;3210;48.708;9.030;2022-09-13T14:43:40;27.20;1.00
6355;DHT22;3210;48.708;9.030;2022-09-13T14:46:12;27.30;1.00
6355;DHT22;3210;48.708;9.030;2022-09-13T14:48:47;27.10;1.00
6355;DHT22;3210;48.708;9.030;2022-09-13T14:51:20;27.10;1.00
6355;DHT22;3210;48.708;9.030;2022-09-13T14:53:51;27.00;1.00
6355;DHT22;3210;48.708;9.030;2022-09-13T14:56:31;26.80;1.00
6355;DHT22;3210;48.708;9.030;2022-09-13T14:59:00;26.90;1.00
6355;DHT22;3210;48.708;9.030;2022-09-13T15:01:33;26.90;1.00
6355;DHT22;3210;48.708;9.030;2022-09-13T15:04:02;26.80;1.00
6355;DHT22;3210;48.708;9.030;2022-09-13T15:06:37;26.60;1.00
6355;DHT22;3210;48.708;9.030;2022-09-13T15:09:25;26.60;1.00
6355;DHT22;3210;48.708;9.030;2022-09-13T15:11:59;26.50;1.00
6355;DHT22;3210;48.708;9.030;2022-09-13T15:14:29;26.40;1.00
6355;DHT22;3210;48.708;9.030;2022-09-13T15:17:05;26.40;1.00
6355;DHT22;3210;48.708;9.030;2022-09-13T15:19:38;26.40;1.00
6355;DHT22;3210;48.708;9.030;2022-09-13T15:22:16;26.40;1.00
6355;DHT22;3210;48.708;9.030;2022-09-13T15:24:46;26.40;1.00
6355;DHT22;3210;48.708;9.030;2022-09-13T15:27:24;26.40;1.00
6355;DHT22;3210;48.708;9.030;2022-09-13T15:29:53;26.50;1.00
6355;DHT22;3210;48.708;9.030;2022-09-13T15:32:30;26.60;1.00
6355;DHT22;3210;48.708;9.030;2022-09-13T15:34:59;26.40;1.00
6355;DHT22;3210;48.708;9.030;2022-09-13T15:37:32;26.20;1.00
6355;DHT22;3210;48.708;9.030;2022-09-13T15:40:15;26.20;1.00
6355;DHT22;3210;48.708;9.030;2022-09-13T15:42:47;26.10;1.00
6355;DHT22;3210;48.708;9.030;2022-09-13T15:45:15;26.10;1.00
6355;DHT22;3210;48.708;9.030;2022-09-13T15:47:46;26.00;1.00
6355;DHT22;3210;48.708;9.030;2022-09-13T15:50:22;25.90;1.00
6355;DHT22;3210;48.708;9.030;2022-09-13T15:52:51;25.70;1.00
6355;DHT22;3210;48.708;9.030;2022-09-13T15:55:19;25.70;1.00
6355;DHT22;3210;48.708;9.030;2022-09-13T15:57:46;25.60;1.00
6355;DHT22;3210;48.708;9.030;2022-09-13T16:00:15;25.40;1.00
6355;DHT22;3210;48.708;9.030;2022-09-13T16:02:42;25.30;1.00
6355;DHT22;3210;48.708;9.030;2022-09-13T16:05:13;25.30;1.00
6355;DHT22;3210;48.708;9.030;2022-09-13T16:07:43;25.20;1.00
6355;DHT22;3210;48.708;9.030;2022-09-13T16:10:13;25.10;1.00
6355;DHT22;3210;48.708;9.030;2022-09-13T16:12:40;25.00;1.00
6355;DHT22;3210;48.708;9.030;2022-09-13T16:15:08;24.90;5.30
6355;DHT22;3210;48.708;9.030;2022-09-13T16:17:37;24.90;1.00
6355;DHT22;3210;48.708;9.030;2022-09-13T16:20:05;25.00;1.00
6355;DHT22;3210;48.708;9.030;2022-09-13T16:22:34;25.00;1.00
6355;DHT22;3210;48.708;9.030;2022-09-13T16:25:01;25.00;1.00
6355;DHT22;3210;48.708;9.030;2022-09-13T16:27:30;24.90;1.00
6355;DHT22;3210;48.708;9.030;2022-09-13T16:29:57;24.60;32.00
6355;DHT22;3210;48.708;9.030;2022-09-13T16:32:24;24.40;30.50
6355;DHT22;3210;48.708;9.030;2022-09-13T16:34:51;24.30;1.00
6355;DHT22;3210;48.708;9.030;2022-09-13T16:37:18;24.10;1.00
6355;DHT22;3210;48.708;9.030;2022-09-13T16:39:46;23.90;36.60
6355;DHT22;3210;48.708;9.030;2022-09-13T16:42:14;23.70;99.90
6355;DHT22;3210;48.708;9.030;2022-09-13T16:44:42;23.50;99.90
6355;DHT22;3210;48.708;9.030;2022-09-13T16:47:09;23.40;99.90
6355;DHT22;3210;48.708;9.030;2022-09-13T16:49:36;23.20;99.90
6355;DHT22;3210;48.708;9.030;2022-09-13T16:52:03;23.10;99.90
6355;DHT22;3210;48.708;9.030;2022-09-13T16:54:30;23.10;99.90
6355;DHT22;3210;48.708;9.030;2022-09-13T16:57:00;23.00;99.90
6355;DHT22;3210;48.708;9.030;2022-09-13T16:59:28;22.90;99.90